Time;durP1;ratioP1;P1;durP2;ratioP2;P2;SDS_P1;SDS_P2;PMS_P1;PMS_P2;Temp;Humidity;BMP_temperature;BMP_pressure;BME280_temperature;BME280_humidity;BME280_pressure;Samples;Min_cycle;Max_cycle;Signal;HPM_P1;HPM_P2
2022/03/22 00:01:51;;;;;;;0.80;0.80;;;;;;;10.88;52.31;103165.06;5059145;28;20126;-76
2022/03/22 00:04:18;;;;;;;0.10;0.10;;;;;;;10.87;52.20;103163.28;5071481;28;20035;-76
2022/03/22 00:06:45;;;;;;;0.15;0.15;;;;;;;10.86;52.45;103166.78;5072889;28;20037;-76
2022/03/22 00:09:11;;;;;;;0.32;0.32;;;;;;;10.86;51.99;103168.56;5072431;28;20115;-77
2022/03/22 00:11:37;;;;;;;0.10;0.10;;;;;;;10.84;52.29;103168.50;5072861;28;20098;-77
2022/03/22 00:14:06;;;;;;;0.10;0.10;;;;;;;10.82;51.73;103164.97;5072820;28;20055;-76
2022/03/22 00:16:32;;;;;;;0.13;0.13;;;;;;;10.80;52.21;103164.03;5063064;28;20064;-77
2022/03/22 00:18:58;;;;;;;0.00;0.00;;;;;;;10.79;51.94;103162.25;5072672;28;20036;-76
2022/03/22 00:21:25;;;;;;;0.10;0.10;;;;;;;10.77;52.53;103162.22;5071668;28;20081;-76
2022/03/22 00:23:51;;;;;;;0.10;0.10;;;;;;;10.76;52.17;103159.56;5065546;28;20025;-77
2022/03/22 00:26:17;;;;;;;0.25;0.25;;;;;;;10.72;52.50;103157.72;5056332;28;20032;-76
2022/03/22 00:28:44;;;;;;;0.20;0.20;;;;;;;10.71;52.13;103167.41;5072114;28;20092;-77
2022/03/22 00:31:11;;;;;;;0.68;0.68;;;;;;;10.70;52.31;103162.09;5071582;28;20052;-76
2022/03/22 00:33:38;;;;;;;0.73;0.73;;;;;;;10.67;52.36;103160.28;5066103;28;20567;-76
2022/03/22 00:36:05;;;;;;;0.20;0.20;;;;;;;10.64;51.94;103158.47;5072789;28;20498;-76
2022/03/22 00:38:32;;;;;;;0.63;0.63;;;;;;;10.63;52.84;103164.66;5061110;28;20506;-76
2022/03/22 00:40:58;;;;;;;0.10;0.10;;;;;;;10.60;52.28;103159.28;5055970;28;20040;-77
2022/03/22 00:43:24;;;;;;;0.00;0.00;;;;;;;10.59;52.86;103165.47;5060301;28;20521;-77
2022/03/22 00:45:51;;;;;;;0.00;0.00;;;;;;;10.58;52.74;103160.13;5073307;28;20040;-76
2022/03/22 00:48:17;;;;;;;0.15;0.15;;;;;;;10.56;52.77;103157.44;5072710;28;20120;-76
2022/03/22 00:50:47;;;;;;;0.30;0.30;;;;;;;10.55;52.44;103166.25;5072837;28;20035;-77
2022/03/22 00:53:14;;;;;;;0.85;0.85;;;;;;;10.54;52.22;103159.16;5074616;28;20028;-77
2022/03/22 00:55:41;;;;;;;0.30;0.30;;;;;;;10.54;52.29;103158.28;5067613;28;20024;-78
2022/03/22 00:58:07;;;;;;;0.10;0.10;;;;;;;10.51;52.35;103160.00;5074376;28;20506;-76
2022/03/22 01:00:34;;;;;;;0.10;0.10;;;;;;;10.49;52.02;103156.47;5072825;28;20051;-77
2022/03/22 01:03:02;;;;;;;0.25;0.25;;;;;;;10.48;51.82;103159.97;5071905;28;20025;-77
2022/03/22 01:05:30;;;;;;;0.10;0.10;;;;;;;10.46;52.23;103164.34;5072291;28;20436;-77
2022/03/22 01:08:03;;;;;;;0.17;0.17;;;;;;;10.49;52.67;103160.84;5072768;28;20047;-77
2022/03/22 01:10:30;;;;;;;0.30;0.30;;;;;;;10.45;52.55;103159.91;5071571;28;20025;-77
2022/03/22 01:12:57;;;;;;;0.10;0.10;;;;;;;10.45;52.66;103166.97;5072534;28;20028;-76
2022/03/22 01:15:26;;;;;;;0.15;0.15;;;;;;;10.44;52.59;103166.09;5072827;28;20428;-77
2022/03/22 01:17:54;;;;;;;1.65;0.73;;;;;;;10.44;52.57;103162.53;5066276;28;20029;-76
2022/03/22 01:20:25;;;;;;;0.03;0.03;;;;;;;10.41;53.42;103159.84;5070768;28;20056;-76
2022/03/22 01:22:52;;;;;;;0.40;0.40;;;;;;;10.38;53.65;103162.41;5057544;28;20040;-77
2022/03/22 01:25:23;;;;;;;0.10;0.10;;;;;;;10.37;53.43;103164.19;5070444;28;20444;-77
2022/03/22 01:27:50;;;;;;;1.20;0.63;;;;;;;10.35;53.38;103160.56;5072139;28;20032;-77
2022/03/22 01:30:20;;;;;;;0.52;0.52;;;;;;;10.35;53.29;103160.56;5071737;28;20068;-77
2022/03/22 01:32:48;;;;;;;0.10;0.10;;;;;;;10.37;53.54;103161.53;5071277;28;20030;-77
2022/03/22 01:35:15;;;;;;;0.10;0.10;;;;;;;10.35;53.36;103168.53;5071931;28;20036;-77
2022/03/22 01:37:42;;;;;;;0.10;0.10;;;;;;;10.34;53.77;103164.09;5073343;28;20031;-77
2022/03/22 01:40:09;;;;;;;0.10;0.10;;;;;;;10.32;53.81;103153.47;5072508;28;20032;-78
2022/03/22 01:42:38;;;;;;;0.00;0.00;;;;;;;10.33;54.07;103155.25;5071852;28;20028;-77
2022/03/22 01:45:05;;;;;;;0.10;0.10;;;;;;;10.31;53.41;103151.69;5072394;28;20066;-77
2022/03/22 01:47:32;;;;;;;0.75;0.75;;;;;;;10.31;53.99;103154.31;5072618;28;20449;-77
2022/03/22 01:49:58;;;;;;;1.13;1.13;;;;;;;10.31;53.91;103146.38;5071669;28;20112;-77
2022/03/22 01:52:26;;;;;;;0.88;0.88;;;;;;;10.32;54.19;103158.75;5071738;28;20025;-77
2022/03/22 01:54:55;;;;;;;0.05;0.05;;;;;;;10.30;54.25;103151.66;5072317;28;20068;-77
2022/03/22 01:57:23;;;;;;;1.17;1.17;;;;;;;10.27;54.26;103143.63;5064760;28;20315;-77
2022/03/22 01:59:49;;;;;;;1.55;0.47;;;;;;;10.25;54.05;103146.25;5072390;28;20467;-77
2022/03/22 02:07:51;;;;;;;0.10;0.10;;;;;;;10.17;55.11;103147.91;5066783;28;20498;-77
2022/03/22 02:10:18;;;;;;;0.00;0.00;;;;;;;10.16;55.08;103143.47;5071834;28;20039;-78
2022/03/22 02:12:45;;;;;;;0.30;0.30;;;;;;;10.13;54.47;103140.72;5070907;28;20460;-75
2022/03/22 02:15:12;;;;;;;0.20;0.20;;;;;;;10.13;54.72;103135.44;5071428;28;20397;-77
2022/03/22 02:17:39;;;;;;;0.10;0.10;;;;;;;10.12;55.24;103133.66;5071249;28;20668;-77
2022/03/22 02:20:05;;;;;;;0.10;0.10;;;;;;;10.12;54.50;103138.94;5070505;28;20514;-77
2022/03/22 02:22:35;;;;;;;0.00;0.00;;;;;;;10.10;54.81;103140.69;5061721;28;20052;-77
2022/03/22 02:25:03;;;;;;;0.10;0.10;;;;;;;10.03;55.11;103137.94;5071077;28;20039;-77
2022/03/22 02:27:30;;;;;;;0.10;0.10;;;;;;;9.99;55.22;103136.09;5071475;28;20515;-77
2022/03/22 02:29:56;;;;;;;0.40;0.40;;;;;;;9.97;55.37;103140.47;5070755;28;20628;-76
2022/03/22 02:32:24;;;;;;;0.10;0.10;;;;;;;9.94;55.80;103135.09;5070911;28;20052;-76
2022/03/22 02:34:50;;;;;;;0.32;0.32;;;;;;;9.92;55.46;103136.84;5070857;28;20111;-77
2022/03/22 02:37:16;;;;;;;0.10;0.10;;;;;;;9.90;55.85;103132.38;5071445;28;20051;-77
2022/03/22 02:39:42;;;;;;;0.10;0.10;;;;;;;9.87;55.81;103130.56;5067884;28;20036;-77
2022/03/22 02:42:09;;;;;;;0.10;0.10;;;;;;;9.85;56.66;103137.56;5060167;28;20104;-77
2022/03/22 02:44:35;;;;;;;4.28;2.88;;;;;;;9.83;55.88;103133.97;5070759;28;20064;-76
2022/03/22 02:47:01;;;;;;;0.10;0.10;;;;;;;9.81;57.35;103141.03;5070561;28;20132;-77
2022/03/22 02:49:30;;;;;;;0.10;0.10;;;;;;;9.76;56.93;103137.34;5070254;28;20040;-77
2022/03/22 02:51:56;;;;;;;1.55;1.45;;;;;;;9.73;57.71;103139.97;5070162;28;20422;-77
2022/03/22 02:54:22;;;;;;;0.15;0.15;;;;;;;9.71;56.59;103135.53;5054728;28;20025;-77
2022/03/22 02:56:48;;;;;;;0.45;0.45;;;;;;;9.69;56.76;103142.56;5071431;28;20119;-76
2022/03/22 02:59:14;;;;;;;0.15;0.15;;;;;;;9.66;55.60;103139.84;5057537;28;20040;-77
2022/03/22 03:01:41;;;;;;;0.20;0.20;;;;;;;9.64;56.16;103140.66;5063444;28;20397;-77
2022/03/22 03:04:07;;;;;;;3.92;1.05;;;;;;;9.61;55.64;103144.16;5067688;28;20020;-77
2022/03/22 03:06:35;;;;;;;0.10;0.10;;;;;;;9.58;57.13;103143.19;5071901;28;20036;-77
2022/03/22 03:09:02;;;;;;;0.10;0.10;;;;;;;9.56;56.65;103153.75;5059727;28;20020;-77
2022/03/22 03:11:28;;;;;;;0.52;0.52;;;;;;;9.54;57.47;103147.50;5070045;28;20028;-76
2022/03/22 03:16:40;;;;;;;0.13;0.13;;;;;;;9.49;56.65;103154.47;5068478;28;20149;-77
2022/03/22 03:19:07;;;;;;;0.10;0.10;;;;;;;9.47;56.26;103153.53;5066030;28;20044;-77
2022/03/22 03:21:34;;;;;;;1.75;0.57;;;;;;;9.45;56.61;103149.97;5070685;28;20032;-78
2022/03/22 03:24:00;;;;;;;0.10;0.10;;;;;;;9.43;56.70;103151.69;5070140;28;20036;-77
2022/03/22 03:26:27;;;;;;;0.13;0.13;;;;;;;9.40;56.91;103147.22;5071499;28;20041;-77
2022/03/22 03:28:53;;;;;;;0.00;0.00;;;;;;;9.39;56.21;103146.34;5063434;28;20501;-77
2022/03/22 03:31:19;;;;;;;0.85;0.85;;;;;;;9.38;56.13;103147.19;5068793;28;20044;-77
2022/03/22 03:33:45;;;;;;;0.63;0.57;;;;;;;9.38;56.84;103147.19;5065002;28;20024;-77
2022/03/22 03:36:11;;;;;;;0.10;0.10;;;;;;;9.38;56.50;103139.25;5074196;28;20040;-77
2022/03/22 03:38:41;;;;;;;0.13;0.13;;;;;;;9.39;57.14;103141.06;5075142;28;20038;-77
2022/03/22 03:43:56;;;;;;;0.10;0.10;;;;;;;9.41;56.50;103143.72;5075907;28;20044;-77
2022/03/22 03:49:08;;;;;;;0.03;0.03;;;;;;;9.44;56.90;103149.06;5076259;28;20032;-76
2022/03/22 03:51:35;;;;;;;0.95;0.95;;;;;;;9.48;57.25;103148.28;5073446;28;20485;-76
2022/03/22 03:54:02;;;;;;;0.10;0.10;;;;;;;9.49;57.25;103147.41;5074348;28;20039;-77
2022/03/22 03:56:29;;;;;;;0.20;0.20;;;;;;;9.52;57.64;103146.56;5073956;28;20028;-77
2022/03/22 03:58:57;;;;;;;0.10;0.10;;;;;;;9.53;57.85;103148.38;5074618;28;20035;-77
2022/03/22 04:01:25;;;;;;;0.20;0.20;;;;;;;9.54;58.32;103145.78;5072783;28;20166;-78
2022/03/22 04:03:51;;;;;;;0.10;0.10;;;;;;;9.57;57.01;103144.94;5070038;28;20029;-77
2022/03/22 04:06:53;;;;;;;0.20;0.20;;;;;;;9.68;56.76;103147.81;5073495;28;20035;-78
2022/03/22 04:09:40;;;;;;;0.10;0.10;;;;;;;9.61;56.79;103146.78;5065537;28;20040;-76
2022/03/22 04:12:15;;;;;;;0.65;0.65;;;;;;;9.61;57.95;103148.53;5073980;28;20035;-77
2022/03/22 04:14:42;;;;;;;0.93;0.93;;;;;;;9.62;56.55;103147.66;5073698;28;20031;-76
2022/03/22 04:17:08;;;;;;;0.10;0.10;;;;;;;9.61;58.05;103161.75;5074468;28;20670;-77
2022/03/22 04:19:36;;;;;;;0.20;0.20;;;;;;;9.59;57.03;103156.44;5066355;28;20478;-77
2022/03/22 04:22:04;;;;;;;1.10;1.00;;;;;;;9.59;57.70;103159.09;5064571;28;20044;-78
2022/03/22 04:24:30;;;;;;;3.72;1.20;;;;;;;9.57;57.69;103166.13;5074328;28;20482;-77
2022/03/22 04:32:41;;;;;;;0.10;0.10;;;;;;;9.56;57.17;103169.63;5073800;28;20521;-77
2022/03/22 04:32:44;;;;;;;0.10;0.10;;;;;;;9.51;57.52;103166.00;5069286;28;20131;-76
2022/03/22 04:35:17;;;;;;;0.50;0.50;;;;;;;9.50;57.84;103161.56;5074345;28;20040;-77
2022/03/22 04:37:44;;;;;;;0.10;0.10;;;;;;;9.48;57.45;103164.16;5081022;22;20037;-79
2022/03/22 04:40:14;;;;;;;0.20;0.20;;;;;;;9.48;57.76;103165.91;5055305;28;20055;-79
2022/03/22 04:42:40;;;;;;;0.10;0.10;;;;;;;9.47;58.04;103161.47;5054459;28;20020;-79
2022/03/22 04:45:07;;;;;;;0.10;0.10;;;;;;;9.46;58.23;103171.16;5055215;28;20032;-79
2022/03/22 04:47:35;;;;;;;0.20;0.20;;;;;;;9.45;58.30;103165.84;5055082;28;20040;-79
2022/03/22 04:50:03;;;;;;;0.85;0.85;;;;;;;9.44;58.67;103159.66;5055724;28;20730;-79
2022/03/22 04:58:02;;;;;;;0.10;0.10;;;;;;;9.44;58.17;103164.06;5051166;28;20525;-79
2022/03/22 05:00:29;;;;;;;0.10;0.10;;;;;;;9.43;57.69;103172.84;5055177;28;20052;-79
2022/03/22 05:02:56;;;;;;;0.47;0.47;;;;;;;9.41;57.71;103172.81;5054950;28;20033;-78
2022/03/22 05:08:08;;;;;;;0.10;0.10;;;;;;;9.36;59.10;103172.72;5058439;28;20058;-80
2022/03/22 05:10:35;;;;;;;0.30;0.30;;;;;;;9.34;58.16;103176.19;5054544;28;20086;-79
2022/03/22 05:13:02;;;;;;;0.52;0.52;;;;;;;9.32;58.36;103176.16;5053405;28;20048;-78
2022/03/22 05:15:28;;;;;;;0.20;0.20;;;;;;;9.29;58.55;103178.72;5054680;28;20033;-80
2022/03/22 05:17:56;;;;;;;0.10;0.10;;;;;;;9.28;58.17;103182.22;5054297;28;20116;-78
2022/03/22 05:20:22;;;;;;;0.22;0.22;;;;;;;9.26;57.43;103186.59;5052635;28;20047;-78
2022/03/22 05:22:48;;;;;;;1.35;1.00;;;;;;;9.24;57.70;103185.66;5053225;28;20039;-80
2022/03/22 05:25:15;;;;;;;0.80;0.63;;;;;;;9.23;57.49;103194.44;5054028;28;20037;-79
2022/03/22 05:27:41;;;;;;;0.50;0.50;;;;;;;9.20;57.67;103197.03;5056535;28;20063;-78
2022/03/22 05:30:08;;;;;;;0.20;0.20;;;;;;;9.18;57.67;103198.75;5064753;28;20032;-79
2022/03/22 05:32:35;;;;;;;0.63;0.52;;;;;;;9.16;57.85;103196.06;5056436;28;20033;-79
2022/03/22 05:35:01;;;;;;;0.10;0.10;;;;;;;9.13;58.06;103190.69;5054506;28;20040;-79
2022/03/22 05:37:27;;;;;;;0.40;0.40;;;;;;;9.13;57.48;103201.28;5053696;28;20025;-79
2022/03/22 05:39:53;;;;;;;0.10;0.10;;;;;;;9.11;57.80;103202.09;5054015;28;20036;-79
2022/03/22 05:42:19;;;;;;;0.68;0.68;;;;;;;9.09;58.27;103198.53;5053167;28;20077;-79
2022/03/22 05:44:47;;;;;;;0.03;0.03;;;;;;;9.06;58.07;103205.53;5053941;28;20043;-79
2022/03/22 05:47:14;;;;;;;0.17;0.17;;;;;;;9.03;58.50;103202.81;5053787;28;20025;-79
2022/03/22 05:49:40;;;;;;;0.10;0.10;;;;;;;9.00;59.23;103202.72;5054465;28;20029;-79
2022/03/22 05:52:07;;;;;;;0.10;0.10;;;;;;;9.01;58.40;103199.25;5052530;28;20036;-79
2022/03/22 05:54:34;;;;;;;0.10;0.10;;;;;;;9.00;58.43;103200.09;5053963;28;20060;-77
2022/03/22 05:57:00;;;;;;;0.10;0.10;;;;;;;9.02;57.80;103205.41;5052712;28;20454;-79
2022/03/22 05:59:26;;;;;;;0.22;0.22;;;;;;;9.01;57.80;103204.53;5052907;28;20467;-78
2022/03/22 06:01:53;;;;;;;0.75;0.75;;;;;;;9.00;58.29;103209.78;5051713;28;20064;-78
2022/03/22 06:04:20;;;;;;;0.32;0.32;;;;;;;8.97;57.74;103207.97;5053449;28;20688;-79
2022/03/22 06:06:47;;;;;;;0.10;0.10;;;;;;;8.96;59.05;103208.81;5052878;28;20119;-78
2022/03/22 06:09:14;;;;;;;0.05;0.05;;;;;;;8.96;58.67;103213.19;5052744;28;20064;-80
2022/03/22 06:11:41;;;;;;;0.65;0.65;;;;;;;8.96;59.05;103208.81;5052015;28;20029;-80
2022/03/22 06:14:08;;;;;;;0.55;0.55;;;;;;;8.97;58.41;103222.91;5052464;28;20072;-79
2022/03/22 06:16:34;;;;;;;0.20;0.20;;;;;;;8.97;58.76;103218.53;5052632;28;20025;-79
2022/03/22 06:19:00;;;;;;;2.50;1.00;;;;;;;8.97;59.36;103214.97;5053398;28;20029;-80
2022/03/22 06:21:27;;;;;;;0.10;0.10;;;;;;;8.97;58.82;103221.19;5052114;28;20033;-79
2022/03/22 06:23:53;;;;;;;0.10;0.10;;;;;;;9.01;58.59;103222.13;5052645;28;20585;-80
2022/03/22 06:26:20;;;;;;;2.00;1.65;;;;;;;9.03;59.22;103225.72;5052300;28;20163;-78
2022/03/22 06:28:46;;;;;;;0.65;0.65;;;;;;;9.06;58.76;103221.41;5052959;28;20029;-79
2022/03/22 06:31:13;;;;;;;0.52;0.52;;;;;;;9.07;59.37;103223.19;5052863;28;20414;-79
2022/03/22 06:33:40;;;;;;;0.10;0.10;;;;;;;9.11;60.12;103229.44;5052486;28;20033;-79
2022/03/22 06:36:08;;;;;;;0.10;0.10;;;;;;;9.14;59.81;103228.63;5052527;28;20029;-78
2022/03/22 06:38:35;;;;;;;1.30;1.30;;;;;;;9.16;59.63;103230.44;5052547;28;20082;-79
2022/03/22 06:41:02;;;;;;;2.67;1.00;;;;;;;9.19;59.52;103229.63;5051922;28;20309;-79
2022/03/22 06:43:28;;;;;;;0.10;0.10;;;;;;;9.25;59.24;103235.06;5053037;28;20020;-79
2022/03/22 06:45:54;;;;;;;0.90;0.88;;;;;;;9.28;59.36;103234.25;5053143;28;20111;-79
2022/03/22 06:48:22;;;;;;;0.68;0.40;;;;;;;9.32;58.29;103234.38;5052380;28;20033;-79
2022/03/22 06:50:49;;;;;;;1.35;1.13;;;;;;;9.36;58.67;103236.22;5052690;28;20087;-80
2022/03/22 06:53:16;;;;;;;0.20;0.20;;;;;;;9.41;58.96;103240.72;5052500;28;20057;-81
2022/03/22 06:55:42;;;;;;;0.25;0.25;;;;;;;9.45;58.72;103239.94;5051683;28;20128;-79
2022/03/22 06:58:09;;;;;;;0.20;0.20;;;;;;;9.50;59.41;103243.59;5052578;28;20029;-79
2022/03/22 07:00:35;;;;;;;2.25;2.15;;;;;;;9.54;58.92;103241.06;5051913;28;20029;-79
2022/03/22 07:03:03;;;;;;;0.10;0.10;;;;;;;9.59;59.01;103248.19;5051230;28;20479;-79
2022/03/22 07:05:30;;;;;;;0.20;0.20;;;;;;;9.63;59.72;103237.72;5052463;28;20061;-79
2022/03/22 07:07:56;;;;;;;0.20;0.20;;;;;;;9.68;59.76;103245.75;5052600;28;20398;-78
2022/03/22 07:10:23;;;;;;;0.10;0.10;;;;;;;9.75;59.53;103238.84;5055756;28;20028;-79
2022/03/22 07:13:00;;;;;;;0.10;0.10;;;;;;;9.85;60.14;103246.13;5055361;28;20051;-79
2022/03/22 07:15:35;;;;;;;0.10;0.10;;;;;;;9.94;59.29;103238.38;5056436;28;20041;-78
2022/03/22 07:18:05;;;;;;;0.15;0.15;;;;;;;9.96;59.25;103239.31;5054692;28;20104;-79
2022/03/22 07:20:32;;;;;;;0.00;0.00;;;;;;;10.05;59.23;103243.91;5055354;28;20037;-79
2022/03/22 07:22:59;;;;;;;0.20;0.20;;;;;;;10.14;59.57;103243.19;5055158;28;20047;-79
2022/03/22 07:25:26;;;;;;;0.52;0.30;;;;;;;10.21;59.59;103234.50;5052899;28;20025;-79
2022/03/22 07:27:53;;;;;;;0.10;0.10;;;;;;;10.29;59.08;103232.91;5055472;28;20029;-79
2022/03/22 07:30:19;;;;;;;0.65;0.65;;;;;;;10.38;59.22;103242.84;5054837;28;20108;-78
2022/03/22 07:32:45;;;;;;;0.68;0.68;;;;;;;10.46;59.79;103245.63;5056033;28;20068;-78
2022/03/22 07:35:14;;;;;;;0.63;0.57;;;;;;;10.54;59.29;103246.66;5057301;28;20025;-77
2022/03/22 07:37:42;;;;;;;0.98;0.95;;;;;;;10.61;59.29;103245.91;5055749;28;20060;-78
2022/03/22 07:40:10;;;;;;;0.40;0.40;;;;;;;10.70;59.77;103261.09;5056313;28;20057;-78
2022/03/22 07:42:37;;;;;;;0.73;0.73;;;;;;;10.80;59.63;103262.16;5055208;28;20039;-78
2022/03/22 07:45:06;;;;;;;0.10;0.10;;;;;;;10.89;59.19;103261.41;5056713;28;20699;-78
2022/03/22 07:47:33;;;;;;;0.10;0.10;;;;;;;10.97;59.19;103265.09;5053184;28;20043;-77
2022/03/22 07:53:01;;;;;;;0.10;0.10;;;;;;;11.18;59.59;103253.97;5050139;28;20041;-77
2022/03/22 07:55:31;;;;;;;0.10;0.10;;;;;;;11.32;59.02;103252.41;5052836;28;20021;-78
2022/03/22 07:57:57;;;;;;;0.15;0.15;;;;;;;11.41;59.91;103261.38;5056466;28;20963;-77
2022/03/22 08:00:26;;;;;;;0.10;0.10;;;;;;;11.51;58.93;103263.31;5057629;28;20094;-76
2022/03/22 08:02:57;;;;;;;0.35;0.35;;;;;;;11.62;58.03;103261.69;5058561;28;20070;-77
2022/03/22 08:05:24;;;;;;;0.90;0.90;;;;;;;11.72;58.25;103259.19;5055053;28;20078;-78
2022/03/22 08:07:51;;;;;;;0.10;0.10;;;;;;;11.82;57.98;103258.44;5054750;28;20033;-79
2022/03/22 08:10:18;;;;;;;1.58;1.48;;;;;;;11.92;58.50;103259.47;5054124;28;20021;-79
2022/03/22 08:12:44;;;;;;;0.32;0.32;;;;;;;12.04;58.67;103261.44;5051609;28;20053;-77
2022/03/22 08:15:10;;;;;;;2.10;0.52;;;;;;;12.14;58.50;103261.53;5053034;28;20044;-79
2022/03/22 08:17:39;;;;;;;6.45;1.45;;;;;;;12.23;58.10;103258.09;5053324;28;20071;-77
2022/03/22 08:20:07;;;;;;;0.63;0.63;;;;;;;12.36;58.06;103260.91;5049361;28;20120;-77
2022/03/22 08:25:29;;;;;;;0.17;0.17;;;;;;;12.67;56.90;103272.75;5048460;28;20409;-78
2022/03/22 08:27:59;;;;;;;0.10;0.10;;;;;;;12.77;56.48;103279.06;5049355;28;20090;-78
2022/03/22 08:30:26;;;;;;;0.77;0.77;;;;;;;12.88;56.62;103274.72;5051463;28;20116;-78
2022/03/22 08:32:56;;;;;;;0.00;0.00;;;;;;;13.04;56.41;103274.88;5057354;28;20084;-76
2022/03/22 08:35:24;;;;;;;0.30;0.25;;;;;;;13.13;56.11;103277.63;5060607;28;20299;-78
2022/03/22 08:37:51;;;;;;;0.43;0.43;;;;;;;13.24;56.27;103275.06;5055017;28;20025;-77
2022/03/22 08:40:17;;;;;;;0.63;0.63;;;;;;;13.34;55.60;103276.88;5058889;28;20040;-77
2022/03/22 08:42:46;;;;;;;0.60;0.57;;;;;;;13.47;55.41;103280.59;5053189;28;20100;-79
2022/03/22 08:45:18;;;;;;;0.17;0.17;;;;;;;13.62;55.60;103276.22;5050500;28;20040;-79
2022/03/22 08:47:46;;;;;;;0.08;0.08;;;;;;;13.70;55.23;103279.84;5050553;28;20029;-78
2022/03/22 08:50:15;;;;;;;0.10;0.10;;;;;;;13.87;55.16;103278.16;5039413;28;20137;-76
2022/03/22 08:52:42;;;;;;;1.60;1.50;;;;;;;13.98;54.92;103274.66;5031392;28;20044;-76
2022/03/22 08:55:11;;;;;;;0.75;0.75;;;;;;;14.12;54.83;103278.28;5038684;28;20029;-76
2022/03/22 08:57:39;;;;;;;0.10;0.10;;;;;;;14.23;54.79;103281.88;5044664;28;20045;-76
2022/03/22 09:00:09;;;;;;;0.73;0.73;;;;;;;14.36;54.48;103272.13;5041270;28;20029;-79
2022/03/22 09:02:37;;;;;;;0.38;0.38;;;;;;;14.50;53.74;103277.50;5040240;28;20036;-77
2022/03/22 09:07:51;;;;;;;0.20;0.20;;;;;;;14.77;53.65;103269.59;5037638;28;20041;-77
2022/03/22 09:10:19;;;;;;;0.20;0.20;;;;;;;14.91;53.72;103280.28;5034713;28;20036;-78
2022/03/22 09:12:48;;;;;;;0.43;0.40;;;;;;;15.03;53.18;103274.97;5032227;28;20395;-79
2022/03/22 09:15:15;;;;;;;1.80;1.70;;;;;;;15.12;52.84;103274.06;5032737;28;20030;-77
2022/03/22 09:17:41;;;;;;;0.00;0.00;;;;;;;15.27;52.57;103274.03;5032831;28;20025;-78
2022/03/22 09:20:12;;;;;;;0.52;0.52;;;;;;;15.38;52.07;103276.72;5040572;28;20095;-78
2022/03/22 09:22:38;;;;;;;0.70;0.63;;;;;;;15.49;51.79;103276.72;5033371;28;20033;-78
2022/03/22 09:25:05;;;;;;;3.83;1.33;;;;;;;15.61;51.68;103267.75;5027456;28;20076;-78
2022/03/22 09:27:31;;;;;;;1.02;0.82;;;;;;;15.74;51.36;103266.84;5025822;28;20029;-76
2022/03/22 09:29:57;;;;;;;0.73;0.73;;;;;;;15.88;51.60;103260.59;5034941;28;20044;-77
2022/03/22 09:32:23;;;;;;;0.25;0.25;;;;;;;16.01;51.33;103267.66;5025541;28;20028;-77
2022/03/22 09:34:50;;;;;;;0.05;0.05;;;;;;;16.09;50.98;103265.84;5032244;28;20029;-77
2022/03/22 09:37:16;;;;;;;0.70;0.70;;;;;;;16.23;50.09;103262.22;5026364;28;20116;-75
2022/03/22 09:39:43;;;;;;;0.30;0.30;;;;;;;16.36;50.61;103258.56;5026246;28;20064;-76
2022/03/22 09:42:10;;;;;;;1.17;1.08;;;;;;;16.48;49.95;103258.50;5029500;28;20040;-77
2022/03/22 09:44:36;;;;;;;1.05;1.05;;;;;;;16.60;49.31;103267.38;5024383;28;20040;-77
2022/03/22 09:47:03;;;;;;;0.10;0.10;;;;;;;16.72;50.23;103264.56;5022293;28;20095;-77
2022/03/22 09:49:30;;;;;;;0.95;0.65;;;;;;;16.82;49.85;103262.72;5024681;28;20038;-76
2022/03/22 09:51:57;;;;;;;0.10;0.10;;;;;;;16.93;49.14;103263.56;5040171;28;20121;-77
2022/03/22 09:54:25;;;;;;;0.40;0.40;;;;;;;17.04;48.38;103259.94;5020891;28;20120;-77
2022/03/22 09:56:53;;;;;;;0.70;0.55;;;;;;;17.16;48.81;103262.50;5020116;28;20040;-77
2022/03/22 09:59:19;;;;;;;0.05;0.05;;;;;;;17.27;48.20;103260.59;5020911;28;20033;-77
2022/03/22 10:01:49;;;;;;;5.57;0.77;;;;;;;17.37;47.64;103256.06;5027497;28;20037;-78
2022/03/22 10:04:15;;;;;;;0.45;0.45;;;;;;;17.50;47.88;103261.28;5026787;28;20454;-77
2022/03/22 10:06:51;;;;;;;0.80;0.52;;;;;;;17.65;48.40;103254.88;5021239;28;20044;-77
2022/03/22 10:09:28;;;;;;;0.08;0.08;;;;;;;17.77;48.43;103244.88;5023004;28;20088;-77
2022/03/22 10:11:54;;;;;;;0.00;0.00;;;;;;;17.86;46.80;103245.69;5026781;28;20021;-76
2022/03/22 10:14:31;;;;;;;0.10;0.10;;;;;;;17.99;47.35;103247.31;5031644;28;20038;-77
2022/03/22 10:16:57;;;;;;;1.33;1.27;;;;;;;18.12;47.15;103242.69;5037576;28;20025;-78
2022/03/22 10:19:25;;;;;;;0.57;0.52;;;;;;;18.18;46.86;103237.25;5053298;28;20032;-78
2022/03/22 10:21:53;;;;;;;0.10;0.10;;;;;;;18.35;46.33;103250.41;5055356;28;20082;-77
2022/03/22 10:24:20;;;;;;;0.52;0.52;;;;;;;18.49;46.64;103238.59;5059906;28;20033;-78
2022/03/22 10:26:47;;;;;;;2.65;1.50;;;;;;;18.59;45.66;103238.44;5054451;28;20029;-78
2022/03/22 10:29:15;;;;;;;0.35;0.35;;;;;;;18.71;46.27;103234.66;5053263;28;20020;-77
2022/03/22 10:32:05;;;;;;;0.82;0.82;;;;;;;18.91;44.61;103238.84;5054446;28;20082;-78
2022/03/22 10:34:31;;;;;;;2.75;1.23;;;;;;;18.96;44.28;103236.09;5055364;28;20029;-78
2022/03/22 10:37:01;;;;;;;1.95;1.85;;;;;;;19.10;44.98;103236.72;5053348;28;20039;-78
2022/03/22 10:39:42;;;;;;;0.65;0.57;;;;;;;19.25;43.56;103230.19;5054499;28;20631;-77
2022/03/22 10:42:11;;;;;;;1.17;0.88;;;;;;;19.24;44.12;103234.69;5054177;28;20384;-78
2022/03/22 10:44:39;;;;;;;0.20;0.20;;;;;;;19.36;43.66;103230.84;5054989;28;20103;-77
2022/03/22 10:47:07;;;;;;;0.20;0.20;;;;;;;19.39;44.12;103232.63;5052006;28;20064;-77
2022/03/22 10:49:34;;;;;;;1.48;0.40;;;;;;;19.45;42.09;103232.50;5051290;28;20021;-76
2022/03/22 10:54:31;;;;;;;0.17;0.17;;;;;;;19.66;41.97;103220.41;4993807;28;20054;-78
2022/03/22 10:56:57;;;;;;;0.10;0.10;;;;;;;19.79;42.42;103230.91;4994066;28;20069;-79
2022/03/22 10:59:27;;;;;;;0.30;0.30;;;;;;;19.87;41.04;103220.94;4995452;28;20034;-78
2022/03/22 11:01:55;;;;;;;0.75;0.70;;;;;;;19.99;42.48;103228.72;4994611;28;20125;-78
2022/03/22 11:04:22;;;;;;;0.68;0.68;;;;;;;20.11;42.04;103227.59;4995004;28;20029;-79
2022/03/22 11:06:48;;;;;;;0.13;0.13;;;;;;;20.25;42.21;103224.59;4993800;28;20035;-78
2022/03/22 11:09:16;;;;;;;0.63;0.63;;;;;;;20.40;40.82;103222.44;4993822;28;20113;-79
2022/03/22 11:11:43;;;;;;;0.20;0.20;;;;;;;20.49;41.83;103212.34;4993460;28;20088;-78
2022/03/22 11:14:13;;;;;;;0.13;0.13;;;;;;;20.58;41.50;103221.13;4993633;28;20033;-79
2022/03/22 11:16:41;;;;;;;10.32;1.67;;;;;;;20.67;41.93;103224.47;4993996;28;20080;-78
2022/03/22 11:19:10;;;;;;;11.40;0.65;;;;;;;20.80;40.83;103225.06;4993833;28;20033;-77
2022/03/22 11:21:38;;;;;;;0.30;0.30;;;;;;;20.93;41.23;103225.63;4992489;28;20034;-79
2022/03/22 11:24:12;;;;;;;0.08;0.08;;;;;;;21.08;38.83;103218.09;4981529;28;20042;-79
2022/03/22 11:26:41;;;;;;;2.10;0.52;;;;;;;21.17;40.34;103210.66;4975130;28;20078;-78
2022/03/22 11:29:11;;;;;;;1.23;0.20;;;;;;;21.29;38.99;103214.78;4974959;28;20036;-78
2022/03/22 11:31:39;;;;;;;0.70;0.70;;;;;;;21.37;38.14;103211.00;4974012;28;20477;-78
2022/03/22 11:34:09;;;;;;;1.33;1.27;;;;;;;21.50;38.29;103213.31;4974515;28;20026;-79
2022/03/22 11:36:53;;;;;;;0.63;0.63;;;;;;;21.70;35.16;103208.31;4973423;28;20027;-78
2022/03/22 11:42:15;;;;;;;0.22;0.20;;;;;;;21.77;35.24;103209.88;4974024;28;20057;-79
2022/03/22 11:42:20;;;;;;;0.47;0.47;;;;;;;21.93;37.03;103203.13;4973726;28;20038;-80
2022/03/22 11:45:07;;;;;;;0.82;0.82;;;;;;;22.07;37.17;103197.28;4973719;28;20469;-80
2022/03/22 11:47:42;;;;;;;0.93;0.93;;;;;;;22.10;36.66;103201.69;4974142;28;20105;-78
2022/03/22 11:50:13;;;;;;;0.15;0.15;;;;;;;22.18;35.53;103196.06;4975311;28;20027;-79
2022/03/22 11:52:42;;;;;;;0.20;0.20;;;;;;;22.26;36.09;103196.69;4974298;28;20054;-79
2022/03/22 12:01:00;;;;;;;0.57;0.30;;;;;;;22.53;35.82;103185.94;5113123;27;20387;-79
2022/03/22 12:03:35;;;;;;;0.00;0.00;;;;;;;22.57;36.11;103196.59;5111176;28;20061;-79
2022/03/22 12:06:16;;;;;;;0.60;0.60;;;;;;;22.70;35.77;103197.06;5111682;28;20116;-78
2022/03/22 12:08:43;;;;;;;0.73;0.73;;;;;;;22.75;35.48;103189.72;5110991;28;20023;-79
2022/03/22 12:11:16;;;;;;;0.65;0.65;;;;;;;22.83;35.62;103196.63;5110365;28;20046;-78
2022/03/22 12:13:45;;;;;;;0.30;0.30;;;;;;;22.93;35.03;103190.00;5111263;28;20517;-79
2022/03/22 12:16:11;;;;;;;0.93;0.77;;;;;;;22.98;33.39;103192.53;5111062;28;20039;-79